createdAt,value
2018-06-03T00:00:06.374Z,76.87
2018-06-03T00:02:34.636Z,77.21
2018-06-03T00:05:02.940Z,77.28
2018-06-03T00:07:31.211Z,77.54
2018-06-03T00:10:00.231Z,77.72
2018-06-03T00:12:28.518Z,77.96
2018-06-03T00:14:56.799Z,78.01
2018-06-03T00:17:25.914Z,78.11
2018-06-03T00:19:55.030Z,78.32
2018-06-03T00:22:38.157Z,78.58
2018-06-03T00:25:07.214Z,78.61
2018-06-03T00:27:35.569Z,78.54
2018-06-03T00:30:04.587Z,78.69
2018-06-03T00:32:32.973Z,78.55
2018-06-03T00:35:01.241Z,78.59
2018-06-03T00:37:30.269Z,78.47
2018-06-03T00:39:58.562Z,78.53
2018-06-03T00:42:26.814Z,78.59
2018-06-03T00:44:55.854Z,78.50
2018-06-03T00:47:24.119Z,78.70
2018-06-03T00:49:53.162Z,78.73
2018-06-03T00:52:21.466Z,78.66
2018-06-03T00:54:49.752Z,78.75
2018-06-03T00:57:18.026Z,78.77
2018-06-03T00:59:46.302Z,78.87
2018-06-03T01:02:15.353Z,79.06
2018-06-03T01:04:43.626Z,78.88
2018-06-03T01:07:11.899Z,78.78
2018-06-03T01:09:40.184Z,78.74
2018-06-03T01:12:09.330Z,78.73
2018-06-03T01:14:37.703Z,78.92
2018-06-03T01:17:06.098Z,78.97
2018-06-03T01:19:34.359Z,78.90
2018-06-03T01:22:03.422Z,78.87
2018-06-03T01:24:31.716Z,78.74
2018-06-03T01:26:59.983Z,78.56
2018-06-03T01:29:28.268Z,78.75
2018-06-03T01:31:56.558Z,78.79
2018-06-03T01:34:24.821Z,78.81
2018-06-03T01:36:53.120Z,78.75
2018-06-03T01:39:21.416Z,78.81
2018-06-03T01:41:49.691Z,78.95
2018-06-03T01:44:17.977Z,79.19
2018-06-03T01:46:47.022Z,79.18
2018-06-03T01:49:15.295Z,79.21
2018-06-03T01:51:43.567Z,79.30
2018-06-03T01:54:11.864Z,79.51
2018-06-03T01:56:40.892Z,79.51
2018-06-03T01:59:09.155Z,79.86
2018-06-03T02:01:38.214Z,79.67
2018-06-03T02:04:07.390Z,79.62
2018-06-03T02:06:35.712Z,79.74
2018-06-03T02:09:03.988Z,80.06
2018-06-03T02:11:32.242Z,79.78
2018-06-03T02:14:01.263Z,79.74
2018-06-03T02:16:29.602Z,79.89
2018-06-03T02:18:57.885Z,79.94
2018-06-03T02:21:26.149Z,80.26
2018-06-03T02:23:54.526Z,80.40
2018-06-03T02:26:22.830Z,80.57
2018-06-03T02:28:51.233Z,80.67
2018-06-03T02:31:19.541Z,80.66
2018-06-03T02:33:47.842Z,80.76
2018-06-03T02:36:16.108Z,80.94
2018-06-03T02:38:44.380Z,81.07
2018-06-03T02:41:12.668Z,80.99
2018-06-03T02:43:40.941Z,81.01
2018-06-03T02:46:09.994Z,81.10
2018-06-03T02:48:39.260Z,81.29
2018-06-03T02:51:08.911Z,81.40
2018-06-03T02:53:37.259Z,81.26
2018-06-03T02:56:06.297Z,81.26
2018-06-03T02:58:35.119Z,81.25
2018-06-03T03:01:04.821Z,81.33
2018-06-03T03:03:33.471Z,81.27
2018-06-03T03:06:01.911Z,81.10
2018-06-03T03:08:30.564Z,81.21
2018-06-03T03:10:59.058Z,81.15
2018-06-03T03:13:27.422Z,81.17
2018-06-03T03:15:55.727Z,80.96
2018-06-03T03:18:24.634Z,81.19
2018-06-03T03:20:53.067Z,81.29
2018-06-03T03:23:22.430Z,81.45
2018-06-03T03:25:52.904Z,81.69
2018-06-03T03:28:22.848Z,81.94
2018-06-03T03:30:52.004Z,82.17
2018-06-03T03:33:22.317Z,82.35
2018-06-03T03:35:52.072Z,82.51
2018-06-03T03:38:22.553Z,82.55
2018-06-03T03:40:52.828Z,82.75
2018-06-03T03:43:22.513Z,82.66
2018-06-03T03:45:52.453Z,82.72
2018-06-03T03:48:21.633Z,82.65
2018-06-03T03:50:50.574Z,82.66
2018-06-03T03:53:20.810Z,82.88
2018-06-03T03:55:50.495Z,82.88
2018-06-03T03:58:19.998Z,82.93
2018-06-03T04:00:49.248Z,82.78
2018-06-03T04:03:17.569Z,82.74
2018-06-03T04:05:46.061Z,82.53
2018-06-03T04:08:14.460Z,82.37
2018-06-03T04:10:43.595Z,82.34
2018-06-03T04:13:11.955Z,82.20
2018-06-03T04:15:40.198Z,81.70
2018-06-03T04:18:08.504Z,81.48
2018-06-03T04:20:36.812Z,81.36
2018-06-03T04:23:05.109Z,80.91
2018-06-03T04:25:34.446Z,80.44
2018-06-03T04:28:02.701Z,80.33
2018-06-03T04:30:30.985Z,79.49
2018-06-03T04:32:59.236Z,79.95
2018-06-03T04:35:27.604Z,79.80
2018-06-03T04:37:55.890Z,80.50
2018-06-03T04:40:24.313Z,80.60
2018-06-03T04:42:52.628Z,80.52
2018-06-03T04:45:20.925Z,80.60
2018-06-03T04:47:50.905Z,80.89
2018-06-03T04:50:19.668Z,80.71
2018-06-03T04:52:49.264Z,80.65
2018-06-03T04:55:17.574Z,80.51
2018-06-03T04:57:45.845Z,80.41
2018-06-03T05:00:14.145Z,80.10
2018-06-03T05:02:42.474Z,80.03
2018-06-03T05:05:11.504Z,80.09
2018-06-03T05:07:39.972Z,79.30
2018-06-03T05:10:09.144Z,79.01
2018-06-03T05:12:37.409Z,79.34
2018-06-03T05:15:05.669Z,79.27
2018-06-03T05:17:33.928Z,79.46
2018-06-03T05:20:02.189Z,78.95
2018-06-03T05:22:30.466Z,78.77
2018-06-03T05:24:58.725Z,77.79
2018-06-03T05:27:26.998Z,78.20
2018-06-03T05:29:56.051Z,78.35
2018-06-03T05:35:21.565Z,77.77
2018-06-03T05:37:50.056Z,77.50
2018-06-03T05:40:18.483Z,76.91
2018-06-03T05:42:46.760Z,77.34
2018-06-03T05:45:15.082Z,76.99
2018-06-03T05:47:43.350Z,75.59
2018-06-03T05:50:11.625Z,75.39
2018-06-03T05:52:40.672Z,75.29
2018-06-03T05:55:08.949Z,74.73
2018-06-03T05:57:37.238Z,73.90
2018-06-03T06:00:05.504Z,73.21
2018-06-03T06:02:34.542Z,72.63
2018-06-03T06:05:02.819Z,72.43
2018-06-03T06:07:31.109Z,71.42
2018-06-03T06:09:59.377Z,70.55
2018-06-03T06:12:28.428Z,69.20
2018-06-03T06:14:56.701Z,68.35
2018-06-03T06:17:24.987Z,68.13
2018-06-03T06:19:53.258Z,67.75
2018-06-03T06:22:22.293Z,66.93
2018-06-03T06:24:50.631Z,65.62
2018-06-03T06:27:18.935Z,64.62
2018-06-03T06:29:47.979Z,62.76
2018-06-03T06:32:16.238Z,62.00
2018-06-03T06:34:46.042Z,61.83
2018-06-03T06:37:14.282Z,60.72
2018-06-03T06:39:42.551Z,58.85
2018-06-03T06:42:11.586Z,58.80
2018-06-03T06:44:39.890Z,58.81
2018-06-03T06:47:08.149Z,59.08
2018-06-03T06:49:36.443Z,59.16
2018-06-03T06:52:04.712Z,60.36
2018-06-03T06:54:33.743Z,61.26
2018-06-03T06:57:02.029Z,62.24
2018-06-03T06:59:30.330Z,63.38
2018-06-03T07:01:58.584Z,63.74
2018-06-03T07:04:26.871Z,64.39
2018-06-03T07:06:55.133Z,64.70
2018-06-03T07:09:23.467Z,64.97
2018-06-03T07:11:51.766Z,65.72
2018-06-03T07:14:20.816Z,66.37
2018-06-03T07:16:49.139Z,66.40
2018-06-03T07:19:17.407Z,66.82
2018-06-03T07:21:45.675Z,66.18
2018-06-03T07:24:13.973Z,66.04
2018-06-03T07:26:42.292Z,65.07
2018-06-03T07:29:10.642Z,64.27
2018-06-03T07:31:38.910Z,64.10
2018-06-03T07:34:07.943Z,63.10
2018-06-03T07:36:36.229Z,63.12
2018-06-03T07:39:04.775Z,62.95
2018-06-03T07:41:33.109Z,61.74
2018-06-03T07:44:02.170Z,61.07
2018-06-03T07:46:30.445Z,62.02
2018-06-03T07:48:58.728Z,61.69
2018-06-03T07:51:27.003Z,60.23
2018-06-03T07:53:55.304Z,60.87
2018-06-03T07:56:23.564Z,60.75
2018-06-03T07:58:51.849Z,60.64
2018-06-03T08:01:20.907Z,59.47
2018-06-03T08:03:49.213Z,58.75
2018-06-03T08:06:17.472Z,59.21
2018-06-03T08:08:45.746Z,59.90
2018-06-03T08:11:14.018Z,59.12
2018-06-03T08:13:43.139Z,58.67
2018-06-03T08:16:11.412Z,58.29
2018-06-03T08:18:40.061Z,58.48
2018-06-03T08:21:08.358Z,58.18
2018-06-03T08:23:36.627Z,57.89
2018-06-03T08:26:04.922Z,58.29
2018-06-03T08:28:33.231Z,57.30
2018-06-03T08:31:01.571Z,56.58
2018-06-03T08:33:30.641Z,54.81
2018-06-03T08:35:58.907Z,54.52
2018-06-03T08:38:27.171Z,53.84
2018-06-03T08:40:56.226Z,52.89
2018-06-03T08:43:24.636Z,53.04
2018-06-03T08:45:52.959Z,51.29
2018-06-03T08:48:21.288Z,49.99
2018-06-03T08:50:49.585Z,51.31
2018-06-03T08:53:17.852Z,50.01
2018-06-03T08:55:46.182Z,49.94
2018-06-03T08:58:14.440Z,52.55
2018-06-03T09:00:43.340Z,52.05
2018-06-03T09:03:11.603Z,52.62
2018-06-03T09:05:39.882Z,53.30
2018-06-03T09:08:08.900Z,53.67
2018-06-03T09:10:37.217Z,54.22
2018-06-03T09:13:05.498Z,53.65
2018-06-03T09:15:33.743Z,53.16
2018-06-03T09:18:02.806Z,53.87
2018-06-03T09:20:31.071Z,52.31
2018-06-03T09:23:00.290Z,50.11
2018-06-03T09:25:29.223Z,49.68
2018-06-03T09:27:58.442Z,50.45
2018-06-03T09:30:29.060Z,49.87
2018-06-03T09:32:57.525Z,48.17
2018-06-03T09:35:25.862Z,49.88
2018-06-03T09:37:54.191Z,48.61
2018-06-03T09:40:22.532Z,49.67
2018-06-03T09:42:50.827Z,51.23
2018-06-03T09:45:19.114Z,50.57
2018-06-03T09:47:47.363Z,49.17
2018-06-03T09:50:15.628Z,49.29
2018-06-03T09:52:43.913Z,47.07
2018-06-03T09:55:12.196Z,47.32
2018-06-03T09:57:40.470Z,45.88
2018-06-03T10:00:08.739Z,46.04
2018-06-03T10:02:37.004Z,45.63
2018-06-03T10:05:06.028Z,45.93
2018-06-03T10:07:34.303Z,45.61
2018-06-03T10:10:03.334Z,45.67
2018-06-03T10:12:32.185Z,46.41
2018-06-03T10:15:01.404Z,48.69
2018-06-03T10:17:30.216Z,50.22
2018-06-03T10:19:59.345Z,50.46
2018-06-03T10:22:28.402Z,51.78
2018-06-03T10:24:56.718Z,52.23
2018-06-03T10:27:24.995Z,51.35
2018-06-03T10:29:54.351Z,49.11
2018-06-03T10:32:22.721Z,49.83
2018-06-03T10:34:51.501Z,50.23
2018-06-03T10:37:25.700Z,48.54
2018-06-03T10:39:55.465Z,48.87
2018-06-03T10:42:23.808Z,49.24
2018-06-03T10:44:52.121Z,49.08
2018-06-03T10:47:20.378Z,47.91
2018-06-03T10:49:48.683Z,48.82
2018-06-03T10:52:16.950Z,47.79
2018-06-03T10:54:45.983Z,48.00
2018-06-03T10:57:15.751Z,48.47
2018-06-03T10:59:44.032Z,47.01
2018-06-03T11:02:12.300Z,47.82
2018-06-03T11:04:41.455Z,46.41
2018-06-03T11:07:12.732Z,45.32
2018-06-03T11:09:45.856Z,42.83
2018-06-03T11:12:14.529Z,43.39
2018-06-03T11:14:43.730Z,41.63
2018-06-03T11:17:13.096Z,42.62
2018-06-03T11:19:43.008Z,43.26
2018-06-03T11:22:11.563Z,43.83
2018-06-03T11:24:40.641Z,43.84
2018-06-03T11:27:11.226Z,44.04
2018-06-03T11:29:48.112Z,44.19
2018-06-03T11:32:19.504Z,43.17
2018-06-03T11:35:31.007Z,42.96
2018-06-03T11:38:00.931Z,43.72
2018-06-03T11:40:31.271Z,42.40
2018-06-03T11:43:00.914Z,45.41
2018-06-03T11:45:30.809Z,47.32
2018-06-03T11:48:01.033Z,48.16
2018-06-03T11:50:30.755Z,48.36
2018-06-03T11:53:00.315Z,47.66
2018-06-03T11:55:30.372Z,47.99
2018-06-03T12:00:11.397Z,49.29
2018-06-03T12:02:42.240Z,51.32
2018-06-03T12:05:14.687Z,50.29
2018-06-03T12:07:45.471Z,51.32
2018-06-03T12:10:19.895Z,51.34
2018-06-03T12:12:51.631Z,50.01
2018-06-03T12:15:21.927Z,50.44
2018-06-03T12:17:54.565Z,48.68
2018-06-03T12:20:27.405Z,49.34
2018-06-03T12:22:58.903Z,48.68
2018-06-03T12:25:29.547Z,47.72
2018-06-03T12:27:58.872Z,48.49
2018-06-03T12:30:28.225Z,48.65
2018-06-03T12:32:57.580Z,48.66
2018-06-03T12:35:27.148Z,47.68
2018-06-03T12:37:56.472Z,47.28
2018-06-03T12:40:25.802Z,47.80
2018-06-03T12:42:55.204Z,45.84
2018-06-03T12:45:24.599Z,44.84
2018-06-03T12:47:54.892Z,45.76
2018-06-03T12:50:24.321Z,44.16
2018-06-03T12:52:53.683Z,44.17
2018-06-03T12:55:23.135Z,42.94
2018-06-03T12:57:52.574Z,42.96
2018-06-03T13:00:21.933Z,42.87
2018-06-03T13:02:51.277Z,42.87
2018-06-03T13:05:20.729Z,42.27
2018-06-03T13:07:50.110Z,43.53
2018-06-03T13:10:19.517Z,44.16
2018-06-03T13:12:48.821Z,45.31
2018-06-03T13:15:18.176Z,45.91
2018-06-03T13:17:47.632Z,47.22
2018-06-03T13:20:16.910Z,47.21
2018-06-03T13:22:46.498Z,47.40
2018-06-03T13:25:15.809Z,46.35
2018-06-03T13:27:45.136Z,47.46
2018-06-03T13:30:14.459Z,47.99
2018-06-03T13:32:43.812Z,46.73
2018-06-03T13:35:15.967Z,48.40
2018-06-03T13:37:48.321Z,47.62
2018-06-03T13:40:20.596Z,46.42
2018-06-03T13:42:52.296Z,45.90
2018-06-03T13:45:25.261Z,46.45
2018-06-03T13:47:55.394Z,44.55
2018-06-03T13:50:25.484Z,45.08
2018-06-03T13:52:55.520Z,45.53
2018-06-03T13:55:24.826Z,43.97
2018-06-03T13:57:54.242Z,43.12
2018-06-03T14:00:23.511Z,42.53
2018-06-03T14:02:52.787Z,42.75
2018-06-03T14:05:23.866Z,42.70
2018-06-03T14:07:53.685Z,42.17
2018-06-03T14:10:22.980Z,43.54
2018-06-03T14:12:52.357Z,42.06
2018-06-03T14:15:21.797Z,44.79
2018-06-03T14:17:51.170Z,43.63
2018-06-03T14:20:20.478Z,44.58
2018-06-03T14:22:54.230Z,45.82
2018-06-03T14:25:23.540Z,45.27
2018-06-03T14:27:52.797Z,44.39
2018-06-03T14:30:22.145Z,43.89
2018-06-03T14:32:51.437Z,43.40
2018-06-03T14:35:20.780Z,43.33
2018-06-03T14:37:50.072Z,42.74
2018-06-03T14:40:19.695Z,44.06
2018-06-03T14:42:49.169Z,43.45
2018-06-03T14:45:18.633Z,42.64
2018-06-03T14:47:47.928Z,44.04
2018-06-03T14:50:17.416Z,43.41
2018-06-03T14:52:46.811Z,42.89
2018-06-03T14:55:16.379Z,41.78
2018-06-03T14:57:46.069Z,42.99
2018-06-03T15:00:15.527Z,43.44
2018-06-03T15:02:45.162Z,43.30
2018-06-03T15:05:15.231Z,44.00
2018-06-03T15:07:45.449Z,42.87
2018-06-03T15:10:15.330Z,44.29
2018-06-03T15:12:45.486Z,43.45
2018-06-03T15:15:15.116Z,44.30
2018-06-03T15:17:44.896Z,43.65
2018-06-03T15:20:14.925Z,42.54
2018-06-03T15:22:44.624Z,42.91
2018-06-03T15:25:14.367Z,44.99
2018-06-03T15:27:44.015Z,44.50
2018-06-03T15:30:15.981Z,44.50
2018-06-03T15:32:45.631Z,43.81
2018-06-03T15:35:16.438Z,44.98
2018-06-03T15:37:47.678Z,45.18
2018-06-03T15:40:17.809Z,44.91
2018-06-03T15:42:47.639Z,44.88
2018-06-03T15:45:17.492Z,43.50
2018-06-03T15:47:47.270Z,44.58
2018-06-03T15:50:17.241Z,45.44
2018-06-03T15:52:53.440Z,45.64
2018-06-03T15:55:23.014Z,46.47
2018-06-03T15:57:52.521Z,46.17
2018-06-03T16:00:22.004Z,46.80
2018-06-03T16:02:51.769Z,46.82
2018-06-03T16:05:21.249Z,46.87
2018-06-03T16:07:50.746Z,46.00
2018-06-03T16:10:20.255Z,45.43
2018-06-03T16:12:49.860Z,45.33
2018-06-03T16:15:19.356Z,47.01
2018-06-03T16:17:48.769Z,46.61
2018-06-03T16:20:18.331Z,45.12
2018-06-03T16:22:47.815Z,45.03
2018-06-03T16:25:17.085Z,44.21
2018-06-03T16:27:46.658Z,45.58
2018-06-03T16:30:16.183Z,45.76
2018-06-03T16:32:45.997Z,46.42
2018-06-03T16:35:15.797Z,46.48
2018-06-03T16:37:46.498Z,44.96
2018-06-03T16:40:16.986Z,46.05
2018-06-03T16:42:46.632Z,46.65
2018-06-03T16:45:16.369Z,46.88
2018-06-03T16:47:46.128Z,46.45
2018-06-03T16:50:15.875Z,47.32
2018-06-03T16:52:45.510Z,47.22
2018-06-03T16:55:18.851Z,48.17
2018-06-03T16:57:48.429Z,48.03
2018-06-03T17:00:18.302Z,47.80
2018-06-03T17:02:47.751Z,46.52
2018-06-03T17:05:17.249Z,47.81
2018-06-03T17:07:50.380Z,47.13
2018-06-03T17:10:19.763Z,47.85
2018-06-03T17:12:49.133Z,47.22
2018-06-03T17:15:18.608Z,48.98
2018-06-03T17:17:47.990Z,48.63
2018-06-03T17:20:17.538Z,49.64
2018-06-03T17:22:46.888Z,50.14
2018-06-03T17:25:16.251Z,50.19
2018-06-03T17:27:46.581Z,50.16
2018-06-03T17:30:15.845Z,50.27
2018-06-03T17:32:45.247Z,50.18
2018-06-03T17:35:14.660Z,50.57
2018-06-03T17:37:44.057Z,49.85
2018-06-03T17:40:13.505Z,50.42
2018-06-03T17:42:42.868Z,50.54
2018-06-03T17:45:12.283Z,49.56
2018-06-03T17:47:41.788Z,51.04
2018-06-03T17:50:11.315Z,50.19
2018-06-03T17:52:40.847Z,50.83
2018-06-03T17:55:10.620Z,51.09
2018-06-03T17:57:40.010Z,50.57
2018-06-03T18:00:09.532Z,50.69
2018-06-03T18:02:39.018Z,50.84
2018-06-03T18:05:08.430Z,51.45
2018-06-03T18:07:37.804Z,51.14
2018-06-03T18:10:07.172Z,51.31
2018-06-03T18:12:36.489Z,50.33
2018-06-03T18:15:05.586Z,51.18
2018-06-03T18:17:36.378Z,51.60
2018-06-03T18:20:05.964Z,50.97
2018-06-03T18:22:35.288Z,51.58
2018-06-03T18:25:04.635Z,51.97
2018-06-03T18:27:33.926Z,51.94
2018-06-03T18:30:03.215Z,52.34
2018-06-03T18:32:32.508Z,52.35
2018-06-03T18:35:01.864Z,52.58
2018-06-03T18:37:31.170Z,52.84
2018-06-03T18:40:00.479Z,52.29
2018-06-03T18:42:29.840Z,52.00
2018-06-03T18:44:59.191Z,51.71
2018-06-03T18:47:28.480Z,52.34
2018-06-03T18:49:57.760Z,52.23
2018-06-03T18:52:28.044Z,53.04
2018-06-03T18:54:57.402Z,52.54
2018-06-03T18:57:26.719Z,52.84
2018-06-03T18:59:55.997Z,52.88
2018-06-03T19:02:25.359Z,53.66
2018-06-03T19:04:54.624Z,54.18
2018-06-03T19:07:24.044Z,54.03
2018-06-03T19:09:53.367Z,54.54
2018-06-03T19:12:22.919Z,55.05
2018-06-03T19:14:52.225Z,55.18
2018-06-03T19:17:21.540Z,54.83
2018-06-03T19:19:50.967Z,55.48
2018-06-03T19:22:20.363Z,55.31
2018-06-03T19:24:49.742Z,56.43
2018-06-03T19:27:19.199Z,55.98
2018-06-03T19:29:48.559Z,56.61
2018-06-03T19:32:18.062Z,56.67
2018-06-03T19:34:47.565Z,57.25
2018-06-03T19:37:16.968Z,57.10
2018-06-03T19:39:46.193Z,56.92
2018-06-03T19:42:15.719Z,57.07
2018-06-03T19:44:45.032Z,57.59
2018-06-03T19:47:14.782Z,57.95
2018-06-03T19:52:25.220Z,58.55
2018-06-03T19:54:54.619Z,58.72
2018-06-03T19:57:24.001Z,59.31
2018-06-03T19:59:53.437Z,58.75
2018-06-03T20:02:22.728Z,59.12
2018-06-03T20:04:52.237Z,59.82
2018-06-03T20:07:21.766Z,58.86
2018-06-03T20:09:51.314Z,59.41
2018-06-03T20:12:20.864Z,59.73
2018-06-03T20:14:50.469Z,59.59
2018-06-03T20:17:19.864Z,59.56
2018-06-03T20:19:49.261Z,60.78
2018-06-03T20:22:18.689Z,60.33
2018-06-03T20:24:48.451Z,60.70
2018-06-03T20:27:17.763Z,60.97
2018-06-03T20:29:47.069Z,60.49
2018-06-03T20:32:16.916Z,60.61
2018-06-03T20:34:46.313Z,60.96
2018-06-03T20:37:15.871Z,61.83
2018-06-03T20:39:45.330Z,62.40
2018-06-03T20:42:14.913Z,62.62
2018-06-03T20:44:44.387Z,62.79
2018-06-03T20:47:13.839Z,62.58
2018-06-03T20:49:43.276Z,62.80
2018-06-03T20:52:12.896Z,63.47
2018-06-03T20:54:42.222Z,62.42
2018-06-03T20:57:11.581Z,62.44
2018-06-03T20:59:41.262Z,62.98
2018-06-03T21:02:10.757Z,62.42
2018-06-03T21:04:40.146Z,62.75
2018-06-03T21:07:09.672Z,63.31
2018-06-03T21:09:39.061Z,62.89
2018-06-03T21:12:08.542Z,63.41
2018-06-03T21:14:38.996Z,64.04
2018-06-03T21:17:08.356Z,64.66
2018-06-03T21:19:37.687Z,65.51
2018-06-03T21:22:06.975Z,65.63
2018-06-03T21:24:37.271Z,66.05
2018-06-03T21:27:06.518Z,65.87
2018-06-03T21:29:35.888Z,65.86
2018-06-03T21:32:05.190Z,65.30
2018-06-03T21:34:34.482Z,65.53
2018-06-03T21:37:03.803Z,65.75
2018-06-03T21:39:33.241Z,65.99
2018-06-03T21:42:02.547Z,66.65
2018-06-03T21:44:31.891Z,66.64
2018-06-03T21:47:01.913Z,65.82
2018-06-03T21:49:31.216Z,66.20
2018-06-03T21:52:00.359Z,67.34
2018-06-03T21:54:33.501Z,66.60
2018-06-03T21:57:02.996Z,66.78
2018-06-03T21:59:32.372Z,67.34
2018-06-03T22:02:01.677Z,67.19
2018-06-03T22:04:30.960Z,68.04
2018-06-03T22:07:00.274Z,67.31
2018-06-03T22:09:29.626Z,67.85
2018-06-03T22:11:58.887Z,68.42
2018-06-03T22:14:37.898Z,68.27
2018-06-03T22:17:33.093Z,68.54
2018-06-03T22:20:05.919Z,68.54
2018-06-03T22:22:35.232Z,68.15
2018-06-03T22:25:04.656Z,69.68
2018-06-03T22:27:34.046Z,69.54
2018-06-03T22:30:03.579Z,69.66
2018-06-03T22:32:35.030Z,69.27
2018-06-03T22:35:04.150Z,69.51
2018-06-03T22:37:33.466Z,69.98
2018-06-03T22:40:02.903Z,69.46
2018-06-03T22:42:32.274Z,71.01
2018-06-03T22:45:01.562Z,70.13
2018-06-03T22:48:09.961Z,70.83
2018-06-03T22:50:40.212Z,70.84
2018-06-03T22:53:09.678Z,70.54
2018-06-03T22:55:42.209Z,71.20
2018-06-03T22:58:11.817Z,70.57
2018-06-03T23:00:41.427Z,70.22
2018-06-03T23:03:14.962Z,70.12
2018-06-03T23:05:44.451Z,70.78
2018-06-03T23:08:13.907Z,69.94
2018-06-03T23:10:43.351Z,70.40
2018-06-03T23:13:12.789Z,70.91
2018-06-03T23:15:42.222Z,70.96
2018-06-03T23:18:11.750Z,71.52
2018-06-03T23:32:28.830Z,71.94
2018-06-03T23:34:58.120Z,73.03
2018-06-03T23:37:27.459Z,72.53
2018-06-03T23:39:56.885Z,72.59
2018-06-03T23:42:26.172Z,73.47
2018-06-03T23:44:55.447Z,72.90
2018-06-03T23:47:24.873Z,73.34
2018-06-03T23:49:54.249Z,73.88
2018-06-03T23:52:23.504Z,74.02
2018-06-03T23:54:52.874Z,74.23
2018-06-03T23:57:22.102Z,74.57
2018-06-03T23:59:51.377Z,74.82
